createdAt,value
2023-05-19T00:00:29.140Z,66.18
2023-05-19T00:03:54.147Z,66.14
2023-05-19T00:06:59.316Z,64.49
2023-05-19T00:10:02.261Z,64.03
2023-05-19T00:13:04.762Z,63.06
2023-05-19T00:16:08.120Z,63.95
2023-05-19T00:19:12.596Z,63.74
2023-05-19T00:22:16.202Z,62.73
2023-05-19T00:25:18.481Z,62.84
2023-05-19T00:28:21.458Z,61.11
2023-05-19T00:31:23.775Z,63.09
2023-05-19T00:34:26.466Z,60.57
2023-05-19T00:37:29.392Z,63.92
2023-05-19T00:40:35.063Z,63.47
2023-05-19T00:43:37.296Z,61.25
2023-05-19T00:46:42.096Z,61.51
2023-05-19T00:49:44.155Z,63.04
2023-05-19T00:52:47.477Z,63.57
2023-05-19T00:55:50.742Z,64.52
2023-05-19T00:58:54.013Z,62.03
2023-05-19T01:01:56.493Z,61.93
2023-05-19T01:05:00.226Z,62.91
2023-05-19T01:08:02.574Z,61.90
2023-05-19T01:11:06.867Z,61.71
2023-05-19T01:14:09.512Z,61.09
2023-05-19T01:17:21.551Z,60.96
2023-05-19T01:20:36.455Z,60.66
2023-05-19T01:24:07.401Z,60.34
2023-05-19T01:27:44.470Z,60.16
2023-05-19T01:30:52.893Z,60.04
2023-05-19T01:33:55.647Z,60.22
2023-05-19T01:37:01.987Z,60.05
2023-05-19T01:40:05.173Z,60.02
2023-05-19T01:43:10.248Z,59.93
2023-05-19T01:46:12.767Z,59.88
2023-05-19T01:49:15.714Z,59.99
2023-05-19T01:52:20.432Z,59.93
2023-05-19T01:55:23.916Z,60.01
2023-05-19T01:58:29.249Z,59.95
2023-05-19T02:01:42.334Z,59.95
2023-05-19T02:04:55.423Z,60.07
2023-05-19T02:08:29.015Z,60.06
2023-05-19T02:11:53.807Z,60.06
2023-05-19T02:15:17.931Z,60.02
2023-05-19T02:18:21.998Z,60.04
2023-05-19T02:21:26.953Z,60.08
2023-05-19T02:24:31.266Z,59.98
2023-05-19T02:27:38.115Z,60.19
2023-05-19T02:30:40.384Z,60.13
2023-05-19T02:33:43.687Z,60.15
2023-05-19T02:36:46.019Z,60.25
2023-05-19T02:39:48.873Z,60.36
2023-05-19T02:42:50.956Z,60.45
2023-05-19T02:45:53.621Z,60.51
2023-05-19T02:48:56.366Z,60.47
2023-05-19T02:51:59.187Z,60.73
2023-05-19T02:55:01.685Z,60.81
2023-05-19T02:58:04.566Z,61.04
2023-05-19T03:01:06.746Z,61.21
2023-05-19T03:04:10.201Z,61.31
2023-05-19T03:07:13.733Z,61.40
2023-05-19T03:10:16.779Z,61.51
2023-05-19T03:13:18.991Z,61.69
2023-05-19T03:16:22.332Z,61.88
2023-05-19T03:19:24.928Z,62.03
2023-05-19T03:22:27.691Z,59.20
2023-05-19T03:25:30.392Z,63.41
2023-05-19T03:28:33.014Z,63.54
2023-05-19T03:31:35.311Z,63.08
2023-05-19T03:34:38.021Z,62.87
2023-05-19T03:37:40.341Z,62.66
2023-05-19T03:40:44.391Z,62.50
2023-05-19T03:43:47.602Z,62.29
2023-05-19T03:46:51.160Z,62.24
2023-05-19T03:49:56.317Z,62.29
2023-05-19T03:53:17.638Z,62.50
2023-05-19T03:56:21.487Z,62.60
2023-05-19T03:59:24.772Z,62.51
2023-05-19T04:02:27.430Z,62.50
2023-05-19T04:05:30.137Z,62.63
2023-05-19T04:08:32.570Z,60.25
2023-05-19T04:11:35.133Z,64.21
2023-05-19T04:14:37.355Z,63.02
2023-05-19T04:17:40.328Z,65.46
2023-05-19T04:20:42.819Z,62.84
2023-05-19T04:23:45.799Z,67.76
2023-05-19T04:26:48.360Z,66.87
2023-05-19T04:29:53.201Z,67.10
2023-05-19T04:32:58.580Z,65.86
2023-05-19T04:36:06.065Z,64.62
2023-05-19T04:39:11.939Z,64.54
2023-05-19T04:42:19.643Z,65.16
2023-05-19T04:45:23.589Z,64.81
2023-05-19T04:48:31.277Z,64.67
2023-05-19T04:51:33.411Z,64.54
2023-05-19T04:54:38.814Z,64.65
2023-05-19T04:57:42.062Z,64.46
2023-05-19T05:00:44.868Z,64.14
2023-05-19T05:03:48.066Z,63.99
2023-05-19T05:06:51.308Z,63.69
2023-05-19T05:09:54.673Z,63.51
2023-05-19T05:12:58.756Z,63.22
2023-05-19T05:16:01.610Z,63.25
2023-05-19T05:19:04.564Z,62.86
2023-05-19T05:22:07.781Z,62.55
2023-05-19T05:25:15.216Z,63.19
2023-05-19T05:28:18.428Z,62.98
2023-05-19T05:31:22.562Z,62.69
2023-05-19T05:34:25.279Z,63.18
2023-05-19T05:37:28.662Z,62.33
2023-05-19T05:40:31.098Z,62.71
2023-05-19T05:43:33.961Z,62.31
2023-05-19T05:46:38.903Z,62.49
2023-05-19T05:49:42.442Z,63.12
2023-05-19T05:52:51.275Z,63.65
2023-05-19T05:55:54.388Z,64.14
2023-05-19T05:59:02.166Z,63.28
2023-05-19T06:02:05.174Z,63.18
2023-05-19T06:05:12.693Z,62.45
2023-05-19T06:08:17.811Z,62.31
2023-05-19T06:11:20.550Z,61.95
2023-05-19T06:14:23.754Z,62.66
2023-05-19T06:17:51.313Z,63.30
2023-05-19T06:20:54.739Z,63.33
2023-05-19T06:23:57.848Z,63.52
2023-05-19T06:27:00.402Z,64.20
2023-05-19T06:30:03.139Z,64.49
2023-05-19T06:33:12.363Z,65.32
2023-05-19T06:36:14.796Z,63.36
2023-05-19T06:39:19.590Z,64.18
2023-05-19T06:42:23.420Z,65.31
2023-05-19T06:45:41.025Z,66.00
2023-05-19T06:48:43.799Z,64.67
2023-05-19T06:51:48.710Z,63.74
2023-05-19T06:54:50.924Z,63.05
2023-05-19T06:57:53.628Z,60.80
2023-05-19T07:00:56.505Z,63.10
2023-05-19T07:04:03.847Z,62.32
2023-05-19T07:07:06.247Z,62.66
2023-05-19T07:10:09.976Z,61.19
2023-05-19T07:13:12.263Z,64.76
2023-05-19T07:16:15.393Z,64.41
2023-05-19T07:19:20.189Z,65.53
2023-05-19T07:22:24.398Z,65.10
2023-05-19T07:25:29.192Z,63.01
2023-05-19T07:28:32.411Z,63.27
2023-05-19T07:31:34.820Z,65.01
2023-05-19T07:34:37.968Z,65.04
2023-05-19T07:37:40.553Z,61.68
2023-05-19T07:40:43.912Z,64.55
2023-05-19T07:43:46.334Z,65.18
2023-05-19T07:46:49.494Z,63.66
2023-05-19T07:49:52.053Z,64.86
2023-05-19T07:52:55.170Z,65.86
2023-05-19T07:55:58.687Z,65.26
2023-05-19T07:59:01.781Z,63.56
2023-05-19T08:02:04.009Z,65.50
2023-05-19T08:05:07.284Z,65.35
2023-05-19T08:08:10.033Z,65.56
2023-05-19T08:11:12.792Z,64.53
2023-05-19T08:14:15.012Z,64.21
2023-05-19T08:17:18.292Z,65.17
2023-05-19T08:20:23.521Z,66.28
2023-05-19T08:23:26.328Z,65.51
2023-05-19T08:26:29.466Z,63.16
2023-05-19T08:29:32.237Z,63.12
2023-05-19T08:32:34.902Z,64.11
2023-05-19T08:35:38.614Z,64.35
2023-05-19T08:38:41.419Z,64.03
2023-05-19T08:41:44.532Z,63.79
2023-05-19T08:44:46.993Z,64.42
2023-05-19T08:47:51.511Z,65.58
2023-05-19T08:51:06.411Z,64.55
2023-05-19T08:54:16.850Z,66.08
2023-05-19T08:57:19.521Z,64.88
2023-05-19T09:00:23.393Z,65.50
2023-05-19T09:03:27.416Z,64.67
2023-05-19T09:06:34.329Z,64.75
2023-05-19T09:09:36.665Z,64.81
2023-05-19T09:12:39.405Z,65.87
2023-05-19T09:15:43.560Z,63.71
2023-05-19T09:18:58.963Z,63.61
2023-05-19T09:22:03.851Z,64.00
2023-05-19T09:25:08.316Z,64.11
2023-05-19T09:28:11.029Z,63.65
2023-05-19T09:31:13.705Z,61.78
2023-05-19T09:34:17.604Z,62.28
2023-05-19T09:37:23.626Z,61.84
2023-05-19T09:40:29.211Z,61.93
2023-05-19T09:43:34.024Z,60.33
2023-05-19T09:46:37.423Z,63.17
2023-05-19T09:49:48.032Z,60.42
2023-05-19T09:52:50.916Z,62.29
2023-05-19T09:55:58.058Z,57.56
2023-05-19T09:59:00.629Z,59.25
2023-05-19T10:02:04.501Z,61.22
2023-05-19T10:05:08.691Z,57.26
2023-05-19T10:08:12.679Z,58.75
2023-05-19T10:11:16.197Z,58.62
2023-05-19T10:14:27.979Z,56.01
2023-05-19T10:17:31.162Z,58.68
2023-05-19T10:20:35.581Z,58.26
2023-05-19T10:23:38.790Z,56.92
2023-05-19T10:26:48.873Z,56.72
2023-05-19T10:29:54.614Z,56.97
2023-05-19T10:33:00.692Z,55.05
2023-05-19T10:36:24.466Z,56.64
2023-05-19T10:39:33.103Z,56.75
2023-05-19T10:42:44.088Z,53.30
2023-05-19T10:45:54.010Z,53.64
2023-05-19T10:48:59.023Z,53.23
2023-05-19T10:52:03.069Z,52.87
2023-05-19T10:55:11.460Z,55.18
2023-05-19T10:58:15.762Z,53.68
2023-05-19T11:01:21.797Z,54.21
2023-05-19T11:04:55.061Z,53.97
2023-05-19T11:08:08.080Z,54.17
2023-05-19T11:11:18.776Z,53.32
2023-05-19T11:14:23.837Z,53.22
2023-05-19T11:17:28.326Z,50.17
2023-05-19T11:20:35.428Z,50.94
2023-05-19T11:23:42.761Z,50.26
2023-05-19T11:26:47.376Z,50.84
2023-05-19T11:29:52.256Z,46.77
2023-05-19T11:32:55.711Z,49.83
2023-05-19T11:35:58.898Z,54.04
2023-05-19T11:39:04.374Z,49.26
2023-05-19T11:42:12.176Z,47.58
2023-05-19T11:45:15.039Z,49.30
2023-05-19T11:48:23.101Z,53.07
2023-05-19T11:51:25.460Z,50.87
2023-05-19T11:54:33.095Z,50.77
2023-05-19T11:57:36.816Z,51.39
2023-05-19T12:00:43.698Z,51.92
2023-05-19T12:03:46.937Z,51.36
2023-05-19T12:06:50.489Z,53.31
2023-05-19T12:09:54.438Z,53.70
2023-05-19T12:12:58.777Z,53.11
2023-05-19T12:16:02.328Z,53.02
2023-05-19T12:19:09.267Z,51.46
2023-05-19T12:22:13.091Z,53.32
2023-05-19T12:25:17.395Z,52.88
2023-05-19T12:28:20.331Z,51.89
2023-05-19T12:31:24.536Z,53.67
2023-05-19T12:34:30.168Z,51.14
2023-05-19T12:37:35.852Z,49.45
2023-05-19T12:40:42.924Z,49.58
2023-05-19T12:43:46.767Z,51.17
2023-05-19T12:46:53.773Z,49.87
2023-05-19T12:50:02.655Z,50.06
2023-05-19T12:53:13.823Z,50.74
2023-05-19T12:56:18.796Z,51.08
2023-05-19T12:59:37.262Z,50.92
2023-05-19T13:03:05.721Z,48.82
2023-05-19T13:06:11.458Z,49.78
2023-05-19T13:09:17.068Z,47.78
2023-05-19T13:12:21.722Z,48.11
2023-05-19T13:15:28.617Z,50.19
2023-05-19T13:18:33.656Z,47.68
2023-05-19T13:21:37.454Z,50.30
2023-05-19T13:24:41.831Z,51.02
2023-05-19T13:27:47.065Z,49.15
2023-05-19T13:30:52.796Z,50.31
2023-05-19T13:33:59.453Z,49.63
2023-05-19T13:37:04.436Z,47.39
2023-05-19T13:40:11.004Z,49.79
2023-05-19T13:43:15.605Z,46.31
2023-05-19T13:46:29.524Z,46.95
2023-05-19T13:49:43.099Z,48.46
2023-05-19T13:52:49.540Z,46.38
2023-05-19T13:55:55.982Z,47.88
2023-05-19T13:59:01.859Z,48.42
2023-05-19T14:02:07.165Z,47.25
2023-05-19T14:05:13.050Z,45.34
2023-05-19T14:08:18.648Z,44.60
2023-05-19T14:11:24.626Z,46.45
2023-05-19T14:14:30.165Z,46.84
2023-05-19T14:17:35.449Z,46.61
2023-05-19T14:20:41.559Z,46.62
2023-05-19T14:23:47.858Z,46.22
2023-05-19T14:26:53.788Z,46.33
2023-05-19T14:30:01.064Z,47.36
2023-05-19T14:33:06.187Z,47.33
2023-05-19T14:36:13.084Z,46.74
2023-05-19T14:39:18.257Z,45.73
2023-05-19T14:42:26.325Z,43.54
2023-05-19T14:45:32.056Z,46.91
2023-05-19T14:48:38.330Z,48.88
2023-05-19T14:51:42.850Z,50.26
2023-05-19T14:54:48.518Z,50.98
2023-05-19T14:57:52.701Z,51.25
2023-05-19T15:01:01.990Z,52.54
2023-05-19T15:04:08.621Z,51.06
2023-05-19T15:07:15.622Z,49.29
2023-05-19T15:10:24.788Z,48.32
2023-05-19T15:13:32.467Z,52.26
2023-05-19T15:16:37.836Z,52.20
2023-05-19T15:19:44.256Z,50.77
2023-05-19T15:22:50.433Z,53.11
2023-05-19T15:25:55.671Z,50.73
2023-05-19T15:29:02.277Z,53.24
2023-05-19T15:32:10.471Z,54.29
2023-05-19T15:35:19.669Z,52.74
2023-05-19T15:38:27.768Z,52.69
2023-05-19T15:41:35.517Z,54.07
2023-05-19T15:48:00.388Z,54.65
2023-05-19T15:51:13.691Z,54.00
2023-05-19T15:54:17.829Z,53.87
2023-05-19T15:57:22.790Z,54.95
2023-05-19T16:00:31.561Z,53.20
2023-05-19T16:03:37.506Z,53.83
2023-05-19T16:06:42.226Z,53.97
2023-05-19T16:09:46.760Z,55.68
2023-05-19T16:12:50.554Z,55.78
2023-05-19T16:15:55.228Z,56.60
2023-05-19T16:22:47.590Z,54.69
2023-05-19T16:26:14.281Z,55.21
2023-05-19T16:29:32.802Z,55.35
2023-05-19T16:32:43.821Z,56.62
2023-05-19T16:35:47.420Z,55.99
2023-05-19T16:38:52.244Z,56.06
2023-05-19T16:41:56.709Z,56.29
2023-05-19T16:45:00.667Z,55.89
2023-05-19T16:48:04.750Z,55.53
2023-05-19T16:51:11.047Z,56.74
2023-05-19T16:54:14.377Z,58.17
2023-05-19T16:57:18.564Z,57.80
2023-05-19T17:00:22.373Z,58.62
2023-05-19T17:03:26.293Z,59.34
2023-05-19T17:06:29.512Z,58.48
2023-05-19T17:09:33.738Z,59.90
2023-05-19T17:12:37.327Z,59.51
2023-05-19T17:15:43.197Z,60.10
2023-05-19T17:18:48.871Z,62.03
2023-05-19T17:21:53.353Z,62.93
2023-05-19T17:25:00.180Z,63.38
2023-05-19T17:28:07.665Z,64.66
2023-05-19T17:31:15.793Z,64.50
2023-05-19T17:34:20.212Z,64.51
2023-05-19T17:37:27.891Z,65.09
2023-05-19T17:40:36.289Z,65.64
2023-05-19T17:43:41.603Z,65.85
2023-05-19T17:46:46.511Z,65.76
2023-05-19T17:49:54.914Z,66.54
2023-05-19T17:53:02.490Z,66.77
2023-05-19T17:56:10.465Z,66.80
2023-05-19T17:59:16.574Z,67.16
2023-05-19T18:02:21.727Z,67.39
2023-05-19T18:05:28.695Z,67.48
2023-05-19T18:08:34.810Z,67.87
2023-05-19T18:11:41.035Z,67.65
2023-05-19T18:14:45.667Z,68.63
2023-05-19T18:17:52.404Z,68.95
2023-05-19T18:20:56.554Z,69.03
2023-05-19T18:24:03.907Z,69.38
2023-05-19T18:27:08.265Z,69.39
2023-05-19T18:30:14.002Z,68.94
2023-05-19T18:33:19.968Z,68.39
2023-05-19T18:36:28.522Z,69.19
2023-05-19T18:39:38.078Z,68.84
2023-05-19T18:42:45.508Z,68.76
2023-05-19T18:45:53.582Z,69.43
2023-05-19T18:49:03.749Z,70.02
2023-05-19T18:52:11.728Z,70.70
2023-05-19T18:55:23.891Z,70.57
2023-05-19T18:58:33.160Z,71.08
2023-05-19T19:01:44.027Z,71.60
2023-05-19T19:04:50.004Z,71.93
2023-05-19T19:07:55.786Z,70.72
2023-05-19T19:11:28.627Z,69.81
2023-05-19T19:14:40.086Z,68.23
2023-05-19T19:17:46.984Z,68.19
2023-05-19T19:20:55.481Z,68.99
2023-05-19T19:24:00.917Z,69.62
2023-05-19T19:27:10.298Z,69.60
2023-05-19T19:30:15.407Z,69.06
2023-05-19T19:33:21.051Z,69.49
2023-05-19T19:36:31.567Z,69.45
2023-05-19T19:39:40.846Z,68.22
2023-05-19T19:42:48.481Z,67.95
2023-05-19T19:46:16.539Z,67.01
2023-05-19T19:49:22.378Z,66.84
2023-05-19T19:52:29.940Z,66.79
2023-05-19T19:55:37.478Z,67.01
2023-05-19T19:59:36.378Z,67.24
2023-05-19T20:03:03.559Z,67.32
2023-05-19T20:06:13.180Z,66.97
2023-05-19T20:09:26.297Z,67.41
2023-05-19T20:15:49.198Z,67.01
2023-05-19T20:18:54.356Z,66.33
2023-05-19T20:22:01.893Z,66.40
2023-05-19T20:25:09.424Z,66.70
2023-05-19T20:28:16.782Z,67.08
2023-05-19T20:31:22.757Z,66.46
2023-05-19T20:34:28.889Z,66.33
2023-05-19T20:37:33.854Z,66.78
2023-05-19T20:40:39.947Z,65.68
2023-05-19T20:43:44.765Z,65.31
2023-05-19T20:46:53.676Z,65.62
2023-05-19T20:49:57.865Z,65.18
2023-05-19T20:53:05.084Z,64.94
2023-05-19T20:56:11.959Z,65.09
2023-05-19T20:59:17.897Z,64.89
2023-05-19T21:02:21.643Z,65.49
2023-05-19T21:05:26.354Z,66.26
2023-05-19T21:08:30.781Z,66.16
2023-05-19T21:11:37.299Z,65.02
2023-05-19T21:14:39.953Z,65.50
2023-05-19T21:17:44.066Z,65.35
2023-05-19T21:20:48.060Z,64.83
2023-05-19T21:23:52.078Z,65.54
2023-05-19T21:26:55.465Z,65.60
2023-05-19T21:29:59.232Z,65.85
2023-05-19T21:33:01.794Z,65.01
2023-05-19T21:36:05.491Z,64.32
2023-05-19T21:39:08.740Z,66.25
2023-05-19T21:42:11.484Z,65.31
2023-05-19T21:45:14.181Z,64.44
2023-05-19T21:48:17.913Z,63.38
2023-05-19T21:51:20.246Z,65.20
2023-05-19T21:54:22.808Z,66.38
2023-05-19T21:57:25.027Z,65.06
2023-05-19T22:00:29.417Z,63.87
2023-05-19T22:03:32.675Z,64.72
2023-05-19T22:06:35.899Z,64.77
2023-05-19T22:09:38.351Z,64.99
2023-05-19T22:12:41.454Z,64.99
2023-05-19T22:15:43.810Z,64.82
2023-05-19T22:18:46.584Z,64.59
2023-05-19T22:21:53.653Z,65.68
2023-05-19T22:25:03.461Z,65.56
2023-05-19T22:28:08.094Z,65.93
2023-05-19T22:31:11.451Z,66.30
2023-05-19T22:34:16.615Z,65.54
2023-05-19T22:37:25.200Z,65.47
2023-05-19T22:40:28.623Z,65.79
2023-05-19T22:43:31.855Z,66.81
2023-05-19T22:46:36.434Z,65.85
2023-05-19T22:49:43.038Z,65.76
2023-05-19T22:52:45.480Z,66.00
2023-05-19T22:55:48.526Z,66.48
2023-05-19T22:58:51.093Z,66.34
2023-05-19T23:01:53.682Z,66.81
2023-05-19T23:04:55.894Z,67.25
2023-05-19T23:07:58.632Z,67.44
2023-05-19T23:11:02.460Z,66.85
2023-05-19T23:14:05.777Z,67.02
2023-05-19T23:17:08.565Z,66.99
2023-05-19T23:20:12.788Z,67.04
2023-05-19T23:23:14.839Z,66.99
2023-05-19T23:26:18.126Z,66.33
2023-05-19T23:29:20.642Z,65.44
2023-05-19T23:32:23.205Z,66.51
2023-05-19T23:35:25.502Z,65.99
2023-05-19T23:38:28.255Z,66.34
2023-05-19T23:41:30.500Z,66.06
2023-05-19T23:44:33.390Z,65.49
2023-05-19T23:47:36.822Z,66.33
2023-05-19T23:50:40.249Z,65.64
2023-05-19T23:53:43.639Z,66.58
2023-05-19T23:56:46.484Z,65.97
2023-05-19T23:59:48.785Z,66.32
